createdAt,value
2022-12-29T00:00:56.534Z,83.23
2022-12-29T00:03:23.632Z,83.35
2022-12-29T00:05:57.269Z,83.55
2022-12-29T00:08:40.141Z,83.46
2022-12-29T00:11:14.755Z,84.03
2022-12-29T00:14:00.996Z,84.02
2022-12-29T00:16:29.328Z,83.58
2022-12-29T00:18:56.321Z,83.50
2022-12-29T00:21:43.562Z,83.69
2022-12-29T00:24:26.399Z,83.24
2022-12-29T00:27:17.908Z,83.55
2022-12-29T00:30:03.788Z,83.33
2022-12-29T00:32:49.849Z,83.66
2022-12-29T00:35:30.231Z,83.30
2022-12-29T00:38:20.944Z,83.15
2022-12-29T00:41:06.474Z,83.23
2022-12-29T00:43:52.812Z,83.49
2022-12-29T00:46:20.445Z,83.14
2022-12-29T00:49:05.924Z,82.99
2022-12-29T00:51:32.852Z,83.13
2022-12-29T00:53:59.792Z,83.37
2022-12-29T00:56:26.715Z,83.53
2022-12-29T00:58:53.664Z,83.00
2022-12-29T01:01:20.830Z,82.92
2022-12-29T01:03:47.814Z,82.73
2022-12-29T01:06:15.700Z,83.39
2022-12-29T01:08:42.664Z,83.55
2022-12-29T01:11:13.789Z,83.41
2022-12-29T01:13:42.173Z,83.28
2022-12-29T01:16:09.191Z,83.33
2022-12-29T01:18:36.226Z,83.87
2022-12-29T01:21:07.329Z,82.99
2022-12-29T01:23:34.475Z,83.91
2022-12-29T01:26:13.475Z,83.77
2022-12-29T01:28:42.429Z,83.56
2022-12-29T01:31:10.494Z,83.47
2022-12-29T01:33:37.903Z,83.78
2022-12-29T01:36:08.240Z,82.90
2022-12-29T01:38:37.084Z,83.81
2022-12-29T01:41:05.662Z,83.59
2022-12-29T01:43:52.199Z,83.78
2022-12-29T01:46:27.433Z,83.37
2022-12-29T01:49:05.934Z,83.42
2022-12-29T01:51:39.927Z,83.52
2022-12-29T01:54:17.128Z,83.88
2022-12-29T01:56:44.864Z,83.87
2022-12-29T01:59:18.802Z,83.56
2022-12-29T02:01:46.270Z,83.63
2022-12-29T02:04:14.071Z,83.51
2022-12-29T02:07:00.456Z,84.40
2022-12-29T02:09:27.482Z,84.12
2022-12-29T02:11:54.807Z,84.55
2022-12-29T02:14:21.707Z,84.19
2022-12-29T02:17:27.806Z,84.36
2022-12-29T02:20:41.673Z,84.24
2022-12-29T02:23:34.247Z,84.70
2022-12-29T02:26:44.180Z,84.45
2022-12-29T02:29:25.737Z,85.02
2022-12-29T02:32:06.668Z,84.53
2022-12-29T02:35:00.674Z,84.62
2022-12-29T02:37:38.306Z,84.72
2022-12-29T02:40:29.153Z,84.83
2022-12-29T02:43:15.052Z,84.73
2022-12-29T02:46:20.338Z,84.67
2022-12-29T02:48:55.432Z,85.12
2022-12-29T02:51:48.033Z,85.65
2022-12-29T02:54:37.028Z,85.42
2022-12-29T02:57:04.250Z,85.26
2022-12-29T02:59:31.433Z,84.71
2022-12-29T03:02:47.086Z,84.48
2022-12-29T03:05:27.583Z,85.36
2022-12-29T03:08:32.923Z,85.51
2022-12-29T03:11:30.964Z,85.21
2022-12-29T03:14:46.409Z,85.16
2022-12-29T03:17:36.644Z,85.42
2022-12-29T03:20:10.407Z,85.27
2022-12-29T03:22:45.947Z,85.70
2022-12-29T03:25:28.889Z,86.09
2022-12-29T03:28:06.062Z,85.94
2022-12-29T03:30:40.371Z,85.67
2022-12-29T03:33:13.504Z,86.07
2022-12-29T03:35:44.827Z,85.81
2022-12-29T03:38:19.419Z,86.32
2022-12-29T03:40:56.655Z,85.89
2022-12-29T03:43:26.921Z,85.91
2022-12-29T03:45:55.399Z,86.07
2022-12-29T03:48:22.953Z,86.57
2022-12-29T03:50:51.463Z,86.31
2022-12-29T03:53:19.937Z,86.23
2022-12-29T03:55:47.595Z,85.83
2022-12-29T03:58:14.574Z,86.24
2022-12-29T04:00:51.985Z,86.47
2022-12-29T04:03:19.087Z,86.30
2022-12-29T04:05:46.031Z,86.58
2022-12-29T04:08:13.054Z,86.37
2022-12-29T04:10:40.242Z,86.21
2022-12-29T04:13:07.843Z,86.08
2022-12-29T04:15:35.624Z,86.12
2022-12-29T04:18:02.860Z,86.10
2022-12-29T04:20:48.074Z,86.29
2022-12-29T04:23:15.193Z,86.08
2022-12-29T04:25:45.898Z,86.43
2022-12-29T04:28:15.294Z,85.95
2022-12-29T04:31:01.598Z,86.05
2022-12-29T04:33:40.756Z,85.80
2022-12-29T04:36:08.028Z,86.00
2022-12-29T04:38:36.943Z,85.59
2022-12-29T04:41:05.366Z,85.62
2022-12-29T04:43:33.631Z,85.54
2022-12-29T04:46:24.209Z,85.22
2022-12-29T04:49:09.179Z,85.70
2022-12-29T04:51:53.438Z,85.50
2022-12-29T04:54:20.886Z,85.25
2022-12-29T04:56:55.696Z,85.65
2022-12-29T04:59:22.720Z,85.73
2022-12-29T05:01:53.017Z,85.73
2022-12-29T05:04:20.122Z,85.15
2022-12-29T05:06:48.579Z,85.25
2022-12-29T05:09:15.562Z,85.24
2022-12-29T05:11:42.558Z,85.12
2022-12-29T05:14:10.396Z,85.55
2022-12-29T05:16:38.303Z,84.91
2022-12-29T05:19:06.031Z,85.41
2022-12-29T05:21:33.770Z,85.38
2022-12-29T05:24:00.902Z,85.51
2022-12-29T05:26:28.740Z,85.27
2022-12-29T05:29:05.571Z,85.16
2022-12-29T05:31:33.612Z,85.01
2022-12-29T05:34:01.168Z,84.23
2022-12-29T05:36:31.654Z,85.34
2022-12-29T05:39:03.793Z,85.26
2022-12-29T05:41:31.283Z,84.88
2022-12-29T05:44:16.819Z,84.44
2022-12-29T05:46:45.239Z,85.09
2022-12-29T05:49:18.823Z,84.83
2022-12-29T05:52:08.727Z,84.84
2022-12-29T05:54:36.199Z,84.96
2022-12-29T05:57:08.435Z,84.67
2022-12-29T05:59:35.471Z,84.70
2022-12-29T06:02:03.050Z,84.99
2022-12-29T06:04:30.091Z,85.13
2022-12-29T06:06:57.388Z,85.04
2022-12-29T06:09:36.266Z,85.11
2022-12-29T06:12:04.553Z,84.80
2022-12-29T06:14:31.503Z,85.08
2022-12-29T06:16:59.333Z,85.04
2022-12-29T06:19:26.473Z,84.89
2022-12-29T06:21:54.001Z,84.99
2022-12-29T06:24:21.841Z,84.30
2022-12-29T06:26:48.817Z,84.33
2022-12-29T06:29:18.017Z,84.44
2022-12-29T06:31:50.260Z,84.98
2022-12-29T06:34:17.481Z,84.31
2022-12-29T06:36:44.401Z,84.51
2022-12-29T06:39:12.038Z,83.90
2022-12-29T06:41:39.138Z,84.19
2022-12-29T06:44:29.053Z,83.79
2022-12-29T06:47:00.974Z,83.63
2022-12-29T06:49:27.891Z,83.55
2022-12-29T06:51:54.859Z,84.32
2022-12-29T06:54:21.777Z,83.78
2022-12-29T06:56:48.721Z,83.53
2022-12-29T06:59:15.624Z,83.97
2022-12-29T07:01:42.689Z,84.11
2022-12-29T07:04:09.676Z,83.58
2022-12-29T07:06:36.937Z,83.68
2022-12-29T07:09:03.900Z,83.67
2022-12-29T07:11:30.804Z,83.43
2022-12-29T07:14:04.508Z,83.45
2022-12-29T07:16:32.564Z,83.83
2022-12-29T07:19:00.435Z,83.55
2022-12-29T07:21:27.365Z,83.31
2022-12-29T07:23:55.839Z,83.04
2022-12-29T07:26:22.879Z,83.06
2022-12-29T07:28:49.809Z,83.03
2022-12-29T07:31:21.176Z,83.39
2022-12-29T07:33:49.169Z,83.42
2022-12-29T07:36:18.253Z,83.52
2022-12-29T07:38:45.193Z,83.21
2022-12-29T07:41:12.146Z,83.56
2022-12-29T07:43:39.692Z,83.70
2022-12-29T07:46:55.492Z,83.08
2022-12-29T07:49:19.802Z,82.79
2022-12-29T07:51:46.711Z,82.58
2022-12-29T07:54:13.750Z,82.81
2022-12-29T07:56:40.708Z,81.94
2022-12-29T07:59:07.745Z,82.80
2022-12-29T08:01:34.792Z,83.59
2022-12-29T08:04:01.920Z,82.76
2022-12-29T08:06:30.032Z,83.21
2022-12-29T08:08:57.908Z,82.87
2022-12-29T08:11:25.082Z,83.38
2022-12-29T08:13:52.464Z,82.73
2022-12-29T08:16:19.595Z,82.33
2022-12-29T08:18:46.523Z,82.57
2022-12-29T08:21:13.461Z,82.50
2022-12-29T08:23:40.416Z,82.88
2022-12-29T08:26:07.343Z,82.67
2022-12-29T08:28:34.336Z,83.56
2022-12-29T08:31:03.931Z,82.14
2022-12-29T08:33:31.029Z,81.95
2022-12-29T08:36:06.911Z,83.06
2022-12-29T08:38:34.163Z,82.36
2022-12-29T08:41:04.447Z,82.62
2022-12-29T08:43:31.776Z,81.97
2022-12-29T08:45:59.720Z,82.30
2022-12-29T08:48:27.584Z,82.21
2022-12-29T08:50:54.837Z,82.40
2022-12-29T08:53:21.884Z,81.69
2022-12-29T08:56:04.213Z,81.00
2022-12-29T08:58:38.152Z,81.53
2022-12-29T09:01:05.384Z,81.53
2022-12-29T09:06:21.371Z,81.71
2022-12-29T09:08:48.273Z,81.19
2022-12-29T09:11:23.139Z,81.65
2022-12-29T09:13:50.823Z,81.73
2022-12-29T09:16:18.995Z,81.43
2022-12-29T09:18:46.184Z,82.05
2022-12-29T09:21:13.679Z,80.98
2022-12-29T09:23:41.359Z,81.49
2022-12-29T09:26:09.600Z,81.26
2022-12-29T09:28:37.743Z,80.62
2022-12-29T09:31:05.203Z,81.37
2022-12-29T09:33:34.361Z,80.88
2022-12-29T09:36:01.321Z,80.62
2022-12-29T09:38:29.427Z,80.71
2022-12-29T09:41:14.134Z,80.80
2022-12-29T09:44:16.304Z,81.45
2022-12-29T09:46:49.091Z,81.98
2022-12-29T09:49:46.962Z,80.97
2022-12-29T09:52:32.019Z,81.60
2022-12-29T09:55:33.147Z,79.83
2022-12-29T09:58:06.712Z,80.68
2022-12-29T10:01:01.322Z,80.15
2022-12-29T10:03:54.235Z,80.25
2022-12-29T10:07:19.405Z,80.13
2022-12-29T10:09:46.587Z,81.45
2022-12-29T10:12:30.880Z,81.42
2022-12-29T10:15:33.150Z,81.15
2022-12-29T10:18:25.085Z,81.09
2022-12-29T10:21:40.789Z,81.78
2022-12-29T10:24:12.562Z,81.32
2022-12-29T10:26:44.848Z,82.16
2022-12-29T10:29:21.326Z,81.91
2022-12-29T10:32:05.914Z,81.39
2022-12-29T10:34:39.371Z,82.21
2022-12-29T10:37:16.958Z,81.53
2022-12-29T10:39:53.006Z,81.48
2022-12-29T10:42:38.333Z,81.50
2022-12-29T10:45:07.070Z,81.61
2022-12-29T10:47:53.875Z,81.53
2022-12-29T10:50:21.217Z,81.47
2022-12-29T10:52:49.438Z,81.68
2022-12-29T10:55:51.546Z,81.93
2022-12-29T10:58:21.836Z,81.53
2022-12-29T11:00:55.242Z,81.97
2022-12-29T11:04:00.031Z,81.33
2022-12-29T11:06:30.181Z,81.36
2022-12-29T11:09:17.078Z,81.75
2022-12-29T11:11:44.067Z,81.93
2022-12-29T11:14:22.347Z,81.88
2022-12-29T11:17:01.663Z,82.18
2022-12-29T11:19:36.112Z,82.39
2022-12-29T11:22:32.911Z,81.78
2022-12-29T11:25:13.180Z,82.10
2022-12-29T11:27:40.761Z,82.24
2022-12-29T11:30:25.963Z,81.82
2022-12-29T11:32:55.525Z,81.92
2022-12-29T11:35:37.304Z,81.92
2022-12-29T11:38:22.995Z,82.22
2022-12-29T11:40:50.667Z,82.51
2022-12-29T11:43:44.063Z,81.67
2022-12-29T11:46:37.282Z,81.98
2022-12-29T11:49:05.453Z,82.45
2022-12-29T11:51:44.873Z,81.45
2022-12-29T11:54:32.193Z,81.83
2022-12-29T11:57:09.832Z,81.36
2022-12-29T11:59:44.622Z,80.79
2022-12-29T12:02:42.613Z,81.42
2022-12-29T12:05:24.177Z,81.94
2022-12-29T12:08:01.915Z,82.08
2022-12-29T12:11:03.121Z,82.12
2022-12-29T12:13:46.894Z,81.92
2022-12-29T12:16:19.320Z,82.70
2022-12-29T12:19:13.347Z,82.24
2022-12-29T12:21:46.066Z,82.21
2022-12-29T12:24:48.281Z,82.15
2022-12-29T12:27:21.653Z,81.50
2022-12-29T12:30:12.969Z,81.56
2022-12-29T12:32:43.876Z,82.07
2022-12-29T12:35:25.002Z,82.47
2022-12-29T12:38:33.535Z,82.35
2022-12-29T12:41:39.596Z,82.33
2022-12-29T12:44:56.523Z,82.23
2022-12-29T12:47:40.562Z,81.60
2022-12-29T12:50:30.365Z,81.99
2022-12-29T12:53:38.624Z,81.90
2022-12-29T12:56:52.547Z,81.99
2022-12-29T12:59:51.537Z,81.83
2022-12-29T13:02:39.421Z,81.72
2022-12-29T13:05:33.405Z,81.97
2022-12-29T13:08:45.283Z,81.59
2022-12-29T13:11:26.730Z,82.90
2022-12-29T13:14:24.019Z,84.08
2022-12-29T13:17:16.433Z,83.05
2022-12-29T13:20:12.245Z,83.68
2022-12-29T13:23:05.452Z,83.37
2022-12-29T13:25:43.900Z,83.53
2022-12-29T13:29:11.907Z,83.30
2022-12-29T13:32:07.868Z,83.39
2022-12-29T13:35:21.928Z,83.00
2022-12-29T13:38:11.272Z,83.37
2022-12-29T13:40:46.267Z,84.43
2022-12-29T13:43:17.052Z,84.67
2022-12-29T13:45:46.309Z,83.85
2022-12-29T13:48:22.469Z,84.31
2022-12-29T13:50:58.310Z,84.19
2022-12-29T13:54:17.588Z,83.65
2022-12-29T13:56:52.762Z,84.08
2022-12-29T13:59:27.671Z,84.40
2022-12-29T14:02:09.744Z,84.57
2022-12-29T14:04:37.363Z,84.37
2022-12-29T14:07:17.928Z,84.02
2022-12-29T14:09:55.950Z,84.66
2022-12-29T14:12:31.284Z,84.88
2022-12-29T14:15:09.671Z,84.68
2022-12-29T14:17:44.633Z,84.39
2022-12-29T14:20:23.829Z,84.52
2022-12-29T14:23:09.873Z,84.58
2022-12-29T14:25:58.343Z,84.10
2022-12-29T14:28:39.040Z,84.56
2022-12-29T14:31:31.944Z,84.39
2022-12-29T14:34:07.977Z,84.54
2022-12-29T14:36:38.735Z,84.55
2022-12-29T14:39:37.382Z,84.18
2022-12-29T14:42:10.420Z,84.67
2022-12-29T14:44:56.115Z,85.12
2022-12-29T14:47:37.834Z,84.74
2022-12-29T14:50:26.097Z,84.42
2022-12-29T14:53:04.180Z,84.95
2022-12-29T14:55:40.871Z,85.67
2022-12-29T14:58:33.206Z,84.64
2022-12-29T15:01:05.124Z,85.13
2022-12-29T15:03:53.590Z,84.77
2022-12-29T15:06:23.280Z,85.39
2022-12-29T15:08:52.060Z,85.68
2022-12-29T15:11:36.389Z,85.24
2022-12-29T15:14:04.222Z,85.98
2022-12-29T15:16:37.673Z,85.52
2022-12-29T15:19:06.136Z,85.60
2022-12-29T15:21:36.475Z,84.99
2022-12-29T15:24:05.017Z,85.08
2022-12-29T15:26:41.326Z,85.52
2022-12-29T15:29:41.861Z,84.32
2022-12-29T15:32:28.422Z,84.42
2022-12-29T15:35:00.932Z,85.70
2022-12-29T15:37:36.821Z,85.10
2022-12-29T15:40:04.921Z,84.95
2022-12-29T15:42:56.703Z,84.42
2022-12-29T15:45:33.100Z,84.90
2022-12-29T15:48:00.703Z,85.28
2022-12-29T15:50:31.584Z,85.10
2022-12-29T15:52:59.986Z,85.11
2022-12-29T15:55:39.685Z,84.49
2022-12-29T15:58:21.715Z,84.65
2022-12-29T16:00:55.604Z,84.98
2022-12-29T16:03:26.194Z,85.07
2022-12-29T16:06:09.035Z,85.07
2022-12-29T16:08:41.128Z,84.80
2022-12-29T16:11:41.558Z,84.57
2022-12-29T16:14:16.165Z,84.55
2022-12-29T16:16:45.743Z,85.17
2022-12-29T16:19:38.302Z,84.45
2022-12-29T16:22:18.387Z,84.99
2022-12-29T16:24:46.484Z,84.71
2022-12-29T16:27:40.874Z,84.35
2022-12-29T16:30:24.330Z,84.44
2022-12-29T16:33:00.567Z,84.92
2022-12-29T16:35:30.908Z,86.76
2022-12-29T16:38:19.113Z,86.24
2022-12-29T16:41:03.418Z,87.24
2022-12-29T16:43:42.597Z,87.62
2022-12-29T16:46:32.887Z,86.78
2022-12-29T16:49:00.094Z,87.45
2022-12-29T16:51:37.231Z,86.73
2022-12-29T16:54:05.140Z,87.83
2022-12-29T16:56:36.273Z,87.01
2022-12-29T16:59:17.247Z,87.27
2022-12-29T17:01:44.594Z,87.02
2022-12-29T17:04:14.464Z,87.34
2022-12-29T17:06:41.945Z,87.21
2022-12-29T17:09:27.477Z,86.88
2022-12-29T17:12:08.814Z,87.39
2022-12-29T17:14:59.904Z,86.91
2022-12-29T17:17:43.403Z,86.80
2022-12-29T17:20:29.143Z,88.21
2022-12-29T17:22:56.811Z,87.48
2022-12-29T17:25:33.303Z,87.54
2022-12-29T17:28:05.000Z,87.36
2022-12-29T17:30:35.932Z,87.42
2022-12-29T17:33:13.323Z,87.65
2022-12-29T17:35:40.245Z,87.34
2022-12-29T17:38:19.879Z,86.65
2022-12-29T17:40:47.252Z,87.63
2022-12-29T17:43:16.470Z,87.17
2022-12-29T17:45:45.101Z,87.12
2022-12-29T17:48:15.345Z,86.89
2022-12-29T17:50:43.876Z,87.03
2022-12-29T17:53:19.766Z,87.17
2022-12-29T17:55:46.845Z,87.28
2022-12-29T17:58:23.676Z,87.29
2022-12-29T18:00:54.804Z,87.91
2022-12-29T18:03:28.681Z,87.92
2022-12-29T18:05:56.266Z,88.55
2022-12-29T18:08:23.364Z,88.87
2022-12-29T18:10:53.809Z,88.09
2022-12-29T18:13:43.622Z,87.30
2022-12-29T18:16:13.580Z,87.38
2022-12-29T18:18:40.597Z,87.26
2022-12-29T18:21:17.064Z,88.13
2022-12-29T18:23:44.363Z,88.74
2022-12-29T18:26:27.692Z,88.44
2022-12-29T18:28:56.670Z,88.90
2022-12-29T18:31:30.552Z,87.85
2022-12-29T18:33:59.929Z,88.89
2022-12-29T18:36:27.654Z,88.98
2022-12-29T18:38:54.980Z,88.35
2022-12-29T18:41:25.448Z,87.60
2022-12-29T18:43:52.848Z,87.32
2022-12-29T18:46:23.239Z,87.53
2022-12-29T18:48:51.884Z,87.78
2022-12-29T18:51:26.094Z,87.45
2022-12-29T18:53:54.102Z,88.91
2022-12-29T18:56:23.393Z,87.91
2022-12-29T18:58:51.453Z,87.38
2022-12-29T19:01:27.798Z,88.66
2022-12-29T19:03:55.294Z,88.95
2022-12-29T19:06:23.166Z,88.01
2022-12-29T19:08:50.123Z,89.19
2022-12-29T19:11:17.788Z,88.87
2022-12-29T19:13:44.819Z,88.69
2022-12-29T19:16:21.633Z,89.08
2022-12-29T19:19:05.884Z,89.19
2022-12-29T19:21:36.760Z,90.05
2022-12-29T19:24:04.002Z,89.56
2022-12-29T19:26:36.216Z,90.05
2022-12-29T19:29:04.400Z,89.79
2022-12-29T19:31:31.422Z,90.06
2022-12-29T19:33:58.368Z,89.80
2022-12-29T19:36:25.451Z,89.65
2022-12-29T19:38:53.215Z,90.08
2022-12-29T19:41:21.059Z,89.41
2022-12-29T19:43:47.997Z,89.16
2022-12-29T19:46:18.021Z,90.29
2022-12-29T19:48:45.221Z,89.92
2022-12-29T19:51:17.090Z,89.78
2022-12-29T19:53:45.881Z,89.87
2022-12-29T19:56:14.321Z,89.65
2022-12-29T19:58:46.931Z,89.73
2022-12-29T20:01:22.112Z,89.55
2022-12-29T20:03:50.109Z,89.65
2022-12-29T20:06:17.399Z,88.98
2022-12-29T20:08:44.321Z,89.38
2022-12-29T20:11:17.479Z,89.37
2022-12-29T20:13:44.988Z,90.28
2022-12-29T20:16:16.412Z,89.35
2022-12-29T20:18:44.186Z,90.25
2022-12-29T20:21:21.867Z,90.76
2022-12-29T20:23:51.169Z,90.56
2022-12-29T20:26:28.835Z,90.50
2022-12-29T20:29:00.755Z,90.30
2022-12-29T20:31:34.460Z,90.71
2022-12-29T20:34:01.795Z,90.66
2022-12-29T20:36:33.293Z,90.33
2022-12-29T20:39:06.600Z,89.63
2022-12-29T20:41:33.882Z,90.65
2022-12-29T20:44:02.237Z,90.54
2022-12-29T20:46:36.474Z,90.28
2022-12-29T20:49:08.691Z,90.26
2022-12-29T20:52:04.375Z,90.26
2022-12-29T20:54:23.517Z,89.65
2022-12-29T20:56:51.978Z,90.06
2022-12-29T20:59:28.106Z,90.00
2022-12-29T21:01:56.746Z,89.42
2022-12-29T21:04:23.930Z,89.50
2022-12-29T21:06:50.830Z,89.84
2022-12-29T21:09:18.591Z,89.74
2022-12-29T21:11:46.666Z,90.49
2022-12-29T21:14:13.816Z,90.77
2022-12-29T21:16:40.869Z,90.20
2022-12-29T21:19:07.798Z,89.70
2022-12-29T21:21:35.069Z,90.23
2022-12-29T21:24:05.984Z,90.24
2022-12-29T21:26:33.821Z,90.65
2022-12-29T21:29:03.299Z,89.53
2022-12-29T21:31:37.125Z,89.83
2022-12-29T21:34:06.179Z,90.68
2022-12-29T21:36:33.351Z,89.71
2022-12-29T21:39:00.753Z,90.06
2022-12-29T21:41:27.727Z,90.29
2022-12-29T21:44:13.877Z,89.98
2022-12-29T21:46:43.801Z,89.52
2022-12-29T21:49:10.805Z,90.23
2022-12-29T21:51:49.893Z,89.83
2022-12-29T21:54:41.908Z,89.32
2022-12-29T21:57:10.758Z,89.35
2022-12-29T21:59:56.676Z,89.49
2022-12-29T22:02:45.793Z,89.56
2022-12-29T22:05:34.230Z,89.28
2022-12-29T22:08:21.624Z,88.98
2022-12-29T22:11:07.578Z,88.91
2022-12-29T22:13:38.299Z,88.71
2022-12-29T22:16:08.133Z,89.13
2022-12-29T22:18:35.277Z,88.92
2022-12-29T22:21:10.371Z,88.81
2022-12-29T22:23:38.032Z,88.68
2022-12-29T22:26:08.205Z,88.72
2022-12-29T22:28:40.373Z,88.78
2022-12-29T22:31:27.910Z,88.89
2022-12-29T22:34:01.167Z,89.09
2022-12-29T22:36:29.245Z,89.02
2022-12-29T22:38:56.291Z,89.29
2022-12-29T22:41:23.462Z,89.17
2022-12-29T22:43:50.388Z,88.96
2022-12-29T22:46:17.364Z,89.73
2022-12-29T22:48:44.384Z,90.13
2022-12-29T22:51:11.337Z,89.33
2022-12-29T22:53:39.441Z,89.26
2022-12-29T22:56:13.195Z,89.17
2022-12-29T22:58:46.130Z,90.32
2022-12-29T23:01:16.532Z,89.89
2022-12-29T23:03:44.594Z,90.29
2022-12-29T23:06:13.832Z,89.96
2022-12-29T23:08:40.733Z,89.52
2022-12-29T23:11:10.331Z,89.97
2022-12-29T23:13:38.674Z,89.98
2022-12-29T23:16:05.731Z,90.55
2022-12-29T23:18:32.824Z,90.63
2022-12-29T23:20:59.932Z,90.46
2022-12-29T23:23:49.226Z,89.53
2022-12-29T23:26:18.735Z,90.32
2022-12-29T23:28:46.567Z,90.54
2022-12-29T23:31:14.811Z,90.07
2022-12-29T23:33:41.993Z,90.10
2022-12-29T23:36:10.148Z,90.17
2022-12-29T23:38:37.438Z,89.86
2022-12-29T23:41:04.671Z,90.06
2022-12-29T23:43:32.013Z,89.92
2022-12-29T23:45:59.250Z,90.03
2022-12-29T23:48:26.171Z,89.69
2022-12-29T23:50:53.114Z,90.32
2022-12-29T23:53:20.015Z,89.72
2022-12-29T23:55:54.709Z,89.62
2022-12-29T23:58:22.557Z,90.47
